메인 페이지
METAR-TAF:

METAR-TAF

공항 :

코나크리, 기니

위도: 09-34N, 경도: 013-37W, 고도: 26m

현재 날씨관측

예보는 1 시간 35분 전, 21:00시(UTC)에 발표되었습니다.
서북서8kt
온도 27°C
습도 84%
기압 1016 hPa
시정 10km 이상
고도 1500ft 상공 구름 조금
고도 11000ft 상공 구름 보통

METAR: GUCY 182100Z 30008KT 9999 FEW015 SCT110 27/24 Q1016 NOSIG

시각: 22:35 (22:35 UTC)

예보

예보는 5 시간 35분 전, 17:00시(UTC)에 발표되었습니다.
예보 대상 시간: 18일 18시부터 19일 24시까지 (UTC)
서남서8kt
시정 10km 이상
고도 1500ft 상공 구름 보통
고도 11000ft 상공 구름 보통
확률 30% :
일시적
18일 21시부터 19일 02시까지 (UTC)
12kt
고도 1300ft 상공 구름 많음
고도 2300ft 상공 구름 조금, 적란운.
고도 10000ft 상공 구름 많음
뇌우
전환 중
19일 03시부터 19일 07시까지 (UTC)
여러 방향의 바람 2kt
시정: 8000m
고도 1300ft 상공 구름 많음
고도 10000ft 상공 흐림
약한비

TAF: GUCY 181700Z 1818/1924 25008KT 9999 SCT015 SCT110 PROB30 TEMPO 1821/1902 17012KT TS BKN013 FEW023CB BKN100 BECMG 1903/1907 VRB02KT 8000 -RA BKN013 OVC100

4,000개 이상의 공항 관측 자료 및 예보 (METAR 및 TAF 보고).

지도상에서 검색 가능한 기상관측소가 노란 점과 빨간 점으로 표시되어 있습니다.

기상관측소 명을 보려면 표시 위로 마우스를 이동하세요.

날씨 관측과 예보를 보려면 클릭하세요.

지도 변경 : 확대하려면 엑스 표시가 있는 녹색 버튼, 축소하려면 빼기 표시가 있는 녹색 버튼, 다음 페이지의 지도를 보려면 녹색 화살표를 클릭하세요.


METAR-TAF: